sensor_id;sensor_type;location;lat;lon;timestamp;pressure;altitude;pressure_sealevel;temperature;humidity
10127;BME280;13080;42.608;23.362;2023-01-09T00:02:23;151119.00;;;0.05;97.26
10127;BME280;13080;42.608;23.362;2023-01-09T00:04:49;151109.97;;;0.01;97.18
10127;BME280;13080;42.608;23.362;2023-01-09T00:07:16;151107.41;;;0.00;97.05
10127;BME280;13080;42.608;23.362;2023-01-09T00:09:42;151091.94;;;-0.06;97.31
10127;BME280;13080;42.608;23.362;2023-01-09T00:12:10;151068.78;;;-0.15;98.02
10127;BME280;13080;42.608;23.362;2023-01-09T00:14:37;151064.88;;;-0.17;97.74
10127;BME280;13080;42.608;23.362;2023-01-09T00:17:03;151017.28;;;-0.36;98.95
10127;BME280;13080;42.608;23.362;2023-01-09T00:19:29;151009.53;;;-0.39;98.79
10127;BME280;13080;42.608;23.362;2023-01-09T00:21:56;150964.47;;;-0.57;98.50
10127;BME280;13080;42.608;23.362;2023-01-09T00:24:22;150965.75;;;-0.56;99.19
10127;BME280;13080;42.608;23.362;2023-01-09T00:26:49;150950.34;;;-0.63;98.57
10127;BME280;13080;42.608;23.362;2023-01-09T00:29:19;150936.16;;;-0.68;99.86
10127;BME280;13080;42.608;23.362;2023-01-09T00:31:45;150941.31;;;-0.66;99.49
10127;BME280;13080;42.608;23.362;2023-01-09T00:34:12;150941.31;;;-0.66;99.98
10127;BME280;13080;42.608;23.362;2023-01-09T00:36:38;150940.03;;;-0.67;99.59
10127;BME280;13080;42.608;23.362;2023-01-09T00:39:05;150940.03;;;-0.67;100.00
10127;BME280;13080;42.608;23.362;2023-01-09T00:41:32;150927.16;;;-0.72;100.00
10127;BME280;13080;42.608;23.362;2023-01-09T00:44:02;150914.28;;;-0.77;100.00
10127;BME280;13080;42.608;23.362;2023-01-09T00:46:32;150919.41;;;-0.75;100.00
10127;BME280;13080;42.608;23.362;2023-01-09T00:49:00;150909.13;;;-0.79;100.00
10127;BME280;13080;42.608;23.362;2023-01-09T00:51:28;150903.97;;;-0.81;99.98
10127;BME280;13080;42.608;23.362;2023-01-09T00:53:54;150897.53;;;-0.84;100.00
10127;BME280;13080;42.608;23.362;2023-01-09T00:56:22;150892.38;;;-0.86;100.00
10127;BME280;13080;42.608;23.362;2023-01-09T00:58:50;150884.69;;;-0.89;100.00
10127;BME280;13080;42.608;23.362;2023-01-09T01:01:17;150873.09;;;-0.93;100.00
10127;BME280;13080;42.608;23.362;2023-01-09T01:03:44;150867.97;;;-0.95;100.00
10127;BME280;13080;42.608;23.362;2023-01-09T01:06:11;150873.09;;;-0.93;99.75
10127;BME280;13080;42.608;23.362;2023-01-09T01:08:55;150865.41;;;-0.96;100.00
10127;BME280;13080;42.608;23.362;2023-01-09T01:11:22;150864.06;;;-0.97;100.00
10127;BME280;13080;42.608;23.362;2023-01-09T01:13:48;150865.41;;;-0.96;100.00
10127;BME280;13080;42.608;23.362;2023-01-09T01:16:15;150853.78;;;-1.01;99.95
10127;BME280;13080;42.608;23.362;2023-01-09T01:18:42;150849.94;;;-1.02;99.55
10127;BME280;13080;42.608;23.362;2023-01-09T01:21:11;150853.78;;;-1.01;100.00
10127;BME280;13080;42.608;23.362;2023-01-09T01:23:38;150851.22;;;-1.02;100.00
10127;BME280;13080;42.608;23.362;2023-01-09T01:26:05;150844.81;;;-1.05;100.00
10127;BME280;13080;42.608;23.362;2023-01-09T01:28:32;150837.09;;;-1.08;100.00
10127;BME280;13080;42.608;23.362;2023-01-09T01:30:58;150826.78;;;-1.12;100.00
10127;BME280;13080;42.608;23.362;2023-01-09T01:33:25;150816.50;;;-1.16;100.00
10127;BME280;13080;42.608;23.362;2023-01-09T01:35:58;150816.50;;;-1.16;100.00
10127;BME280;13080;42.608;23.362;2023-01-09T01:38:25;150803.66;;;-1.21;100.00
10127;BME280;13080;42.608;23.362;2023-01-09T01:40:52;150798.50;;;-1.23;100.00
10127;BME280;13080;42.608;23.362;2023-01-09T01:43:19;150792.06;;;-1.26;100.00
10127;BME280;13080;42.608;23.362;2023-01-09T01:45:45;150789.47;;;-1.27;100.00
10127;BME280;13080;42.608;23.362;2023-01-09T01:48:12;150781.78;;;-1.30;100.00
10127;BME280;13080;42.608;23.362;2023-01-09T01:50:42;150780.44;;;-1.30;100.00
10127;BME280;13080;42.608;23.362;2023-01-09T01:53:14;150779.19;;;-1.31;100.00
10127;BME280;13080;42.608;23.362;2023-01-09T01:55:44;150780.44;;;-1.30;100.00
10127;BME280;13080;42.608;23.362;2023-01-09T01:58:12;150775.34;;;-1.32;100.00
10127;BME280;13080;42.608;23.362;2023-01-09T02:00:41;150776.63;;;-1.32;100.00
10127;BME280;13080;42.608;23.362;2023-01-09T02:03:09;150772.75;;;-1.33;100.00
10127;BME280;13080;42.608;23.362;2023-01-09T02:05:35;150772.75;;;-1.33;100.00
10127;BME280;13080;42.608;23.362;2023-01-09T02:08:04;150772.75;;;-1.33;100.00
10127;BME280;13080;42.608;23.362;2023-01-09T02:10:31;150768.88;;;-1.35;100.00
10127;BME280;13080;42.608;23.362;2023-01-09T02:12:59;150766.31;;;-1.36;100.00
10127;BME280;13080;42.608;23.362;2023-01-09T02:15:27;150767.59;;;-1.35;100.00
10127;BME280;13080;42.608;23.362;2023-01-09T02:18:02;150763.72;;;-1.37;100.00
10127;BME280;13080;42.608;23.362;2023-01-09T02:20:36;150759.91;;;-1.38;100.00
10127;BME280;13080;42.608;23.362;2023-01-09T02:23:13;150765.06;;;-1.36;100.00
10127;BME280;13080;42.608;23.362;2023-01-09T02:25:52;150765.06;;;-1.36;100.00
10127;BME280;13080;42.608;23.362;2023-01-09T02:28:33;150754.75;;;-1.40;100.00
10127;BME280;13080;42.608;23.362;2023-01-09T02:31:06;150756.03;;;-1.40;100.00
10127;BME280;13080;42.608;23.362;2023-01-09T02:33:38;150754.75;;;-1.40;100.00
10127;BME280;13080;42.608;23.362;2023-01-09T02:36:09;150754.75;;;-1.40;100.00
10127;BME280;13080;42.608;23.362;2023-01-09T02:38:40;150750.88;;;-1.42;100.00
10127;BME280;13080;42.608;23.362;2023-01-09T02:41:10;150749.59;;;-1.42;100.00
10127;BME280;13080;42.608;23.362;2023-01-09T02:43:38;150750.88;;;-1.42;100.00
10127;BME280;13080;42.608;23.362;2023-01-09T02:46:04;150739.31;;;-1.47;100.00
10127;BME280;13080;42.608;23.362;2023-01-09T02:48:32;150747.06;;;-1.43;100.00
10127;BME280;13080;42.608;23.362;2023-01-09T02:51:01;150739.31;;;-1.47;100.00
10127;BME280;13080;42.608;23.362;2023-01-09T02:56:23;150759.91;;;-1.38;100.00
10127;BME280;13080;42.608;23.362;2023-01-09T02:58:59;150765.06;;;-1.36;100.00
10127;BME280;13080;42.608;23.362;2023-01-09T03:01:30;150762.44;;;-1.37;100.00
10127;BME280;13080;42.608;23.362;2023-01-09T03:04:03;150763.72;;;-1.37;100.00
10127;BME280;13080;42.608;23.362;2023-01-09T03:06:33;150756.03;;;-1.40;100.00
10127;BME280;13080;42.608;23.362;2023-01-09T03:09:04;150757.31;;;-1.39;100.00
10127;BME280;13080;42.608;23.362;2023-01-09T03:11:34;150762.44;;;-1.37;100.00
10127;BME280;13080;42.608;23.362;2023-01-09T03:14:04;150768.88;;;-1.35;100.00
10127;BME280;13080;42.608;23.362;2023-01-09T03:16:34;150768.88;;;-1.35;100.00
10127;BME280;13080;42.608;23.362;2023-01-09T03:19:03;150768.88;;;-1.35;100.00
10127;BME280;13080;42.608;23.362;2023-01-09T03:21:31;150771.47;;;-1.34;100.00
10127;BME280;13080;42.608;23.362;2023-01-09T03:23:59;150767.59;;;-1.35;100.00
10127;BME280;13080;42.608;23.362;2023-01-09T03:26:26;150765.06;;;-1.36;100.00
10127;BME280;13080;42.608;23.362;2023-01-09T03:28:53;150766.31;;;-1.36;100.00
10127;BME280;13080;42.608;23.362;2023-01-09T03:31:20;150762.44;;;-1.37;100.00
10127;BME280;13080;42.608;23.362;2023-01-09T03:33:47;150767.59;;;-1.35;100.00
10127;BME280;13080;42.608;23.362;2023-01-09T03:36:15;150771.47;;;-1.34;100.00
10127;BME280;13080;42.608;23.362;2023-01-09T03:38:42;150776.63;;;-1.32;100.00
10127;BME280;13080;42.608;23.362;2023-01-09T03:41:09;150772.75;;;-1.33;100.00
10127;BME280;13080;42.608;23.362;2023-01-09T03:43:35;150779.19;;;-1.31;100.00
10127;BME280;13080;42.608;23.362;2023-01-09T03:46:02;150781.78;;;-1.30;100.00
10127;BME280;13080;42.608;23.362;2023-01-09T03:48:28;150781.78;;;-1.30;100.00
10127;BME280;13080;42.608;23.362;2023-01-09T03:50:55;150780.44;;;-1.30;100.00
10127;BME280;13080;42.608;23.362;2023-01-09T03:53:24;150781.78;;;-1.30;100.00
10127;BME280;13080;42.608;23.362;2023-01-09T03:55:51;150788.19;;;-1.27;100.00
10127;BME280;13080;42.608;23.362;2023-01-09T03:58:18;150785.59;;;-1.28;100.00
10127;BME280;13080;42.608;23.362;2023-01-09T04:00:45;150792.06;;;-1.26;100.00
10127;BME280;13080;42.608;23.362;2023-01-09T04:03:13;150790.75;;;-1.26;100.00
10127;BME280;13080;42.608;23.362;2023-01-09T04:05:40;150786.94;;;-1.28;100.00
10127;BME280;13080;42.608;23.362;2023-01-09T04:08:07;150784.31;;;-1.29;100.00
10127;BME280;13080;42.608;23.362;2023-01-09T04:10:35;150775.34;;;-1.32;100.00
10127;BME280;13080;42.608;23.362;2023-01-09T04:13:01;150758.63;;;-1.39;100.00
10127;BME280;13080;42.608;23.362;2023-01-09T04:15:28;150757.31;;;-1.39;100.00
10127;BME280;13080;42.608;23.362;2023-01-09T04:17:54;150739.31;;;-1.47;100.00
10127;BME280;13080;42.608;23.362;2023-01-09T04:20:21;150741.91;;;-1.45;100.00
10127;BME280;13080;42.608;23.362;2023-01-09T04:22:47;150743.19;;;-1.45;100.00
10127;BME280;13080;42.608;23.362;2023-01-09T04:25:14;150736.75;;;-1.48;100.00
10127;BME280;13080;42.608;23.362;2023-01-09T04:27:42;150725.19;;;-1.52;100.00
10127;BME280;13080;42.608;23.362;2023-01-09T04:30:09;150721.31;;;-1.54;100.00
10127;BME280;13080;42.608;23.362;2023-01-09T04:32:35;150717.44;;;-1.55;100.00
10127;BME280;13080;42.608;23.362;2023-01-09T04:35:02;150716.16;;;-1.56;100.00
10127;BME280;13080;42.608;23.362;2023-01-09T04:37:29;150714.88;;;-1.56;100.00
10127;BME280;13080;42.608;23.362;2023-01-09T04:39:55;150711.00;;;-1.58;100.00
10127;BME280;13080;42.608;23.362;2023-01-09T04:42:22;150702.03;;;-1.61;100.00
10127;BME280;13080;42.608;23.362;2023-01-09T04:44:50;150693.03;;;-1.65;100.00
10127;BME280;13080;42.608;23.362;2023-01-09T04:47:18;150689.16;;;-1.67;100.00
10127;BME280;13080;42.608;23.362;2023-01-09T04:49:44;150687.88;;;-1.67;100.00
10127;BME280;13080;42.608;23.362;2023-01-09T04:52:11;150693.03;;;-1.65;100.00
10127;BME280;13080;42.608;23.362;2023-01-09T04:54:38;150703.31;;;-1.61;100.00
10127;BME280;13080;42.608;23.362;2023-01-09T04:57:04;150705.88;;;-1.60;100.00
10127;BME280;13080;42.608;23.362;2023-01-09T04:59:31;150702.03;;;-1.61;100.00
10127;BME280;13080;42.608;23.362;2023-01-09T05:01:59;150720.03;;;-1.54;100.00
10127;BME280;13080;42.608;23.362;2023-01-09T05:04:25;150727.72;;;-1.51;100.00
10127;BME280;13080;42.608;23.362;2023-01-09T05:06:52;150723.88;;;-1.53;100.00
10127;BME280;13080;42.608;23.362;2023-01-09T05:09:18;150729.00;;;-1.51;100.00
10127;BME280;13080;42.608;23.362;2023-01-09T05:11:46;150722.59;;;-1.53;100.00
10127;BME280;13080;42.608;23.362;2023-01-09T05:14:12;150723.88;;;-1.53;100.00
10127;BME280;13080;42.608;23.362;2023-01-09T05:16:38;150735.44;;;-1.48;100.00
10127;BME280;13080;42.608;23.362;2023-01-09T05:19:06;150732.88;;;-1.49;100.00
10127;BME280;13080;42.608;23.362;2023-01-09T05:21:33;150740.59;;;-1.46;100.00
10127;BME280;13080;42.608;23.362;2023-01-09T05:23:59;150738.03;;;-1.47;100.00
10127;BME280;13080;42.608;23.362;2023-01-09T05:26:26;150735.44;;;-1.48;100.00
10127;BME280;13080;42.608;23.362;2023-01-09T05:28:53;150730.34;;;-1.50;100.00
10127;BME280;13080;42.608;23.362;2023-01-09T05:31:20;150709.75;;;-1.58;100.00
10127;BME280;13080;42.608;23.362;2023-01-09T05:33:47;150693.03;;;-1.65;100.00
10127;BME280;13080;42.608;23.362;2023-01-09T05:36:15;150687.88;;;-1.67;100.00
10127;BME280;13080;42.608;23.362;2023-01-09T05:38:41;150681.44;;;-1.70;100.00
10127;BME280;13080;42.608;23.362;2023-01-09T05:41:08;150684.00;;;-1.69;100.00
10127;BME280;13080;42.608;23.362;2023-01-09T05:43:34;150677.56;;;-1.71;100.00
10127;BME280;13080;42.608;23.362;2023-01-09T05:46:01;150675.03;;;-1.72;100.00
10127;BME280;13080;42.608;23.362;2023-01-09T05:48:27;150682.72;;;-1.69;100.00
10127;BME280;13080;42.608;23.362;2023-01-09T05:50:54;150695.56;;;-1.64;100.00
10127;BME280;13080;42.608;23.362;2023-01-09T05:53:21;150712.28;;;-1.57;100.00
10127;BME280;13080;42.608;23.362;2023-01-09T05:55:48;150725.19;;;-1.52;100.00
10127;BME280;13080;42.608;23.362;2023-01-09T05:58:14;150721.31;;;-1.54;100.00
10127;BME280;13080;42.608;23.362;2023-01-09T06:00:41;150723.88;;;-1.53;100.00
10127;BME280;13080;42.608;23.362;2023-01-09T06:03:07;150716.16;;;-1.56;100.00
10127;BME280;13080;42.608;23.362;2023-01-09T06:05:34;150725.19;;;-1.52;100.00
10127;BME280;13080;42.608;23.362;2023-01-09T06:08:00;150713.63;;;-1.57;100.00
10127;BME280;13080;42.608;23.362;2023-01-09T06:10:28;150714.88;;;-1.56;100.00
10127;BME280;13080;42.608;23.362;2023-01-09T06:12:55;150722.59;;;-1.53;100.00
10127;BME280;13080;42.608;23.362;2023-01-09T06:15:21;150729.00;;;-1.51;100.00
10127;BME280;13080;42.608;23.362;2023-01-09T06:17:48;150744.44;;;-1.44;100.00
10127;BME280;13080;42.608;23.362;2023-01-09T06:20:15;150739.31;;;-1.47;100.00
10127;BME280;13080;42.608;23.362;2023-01-09T06:22:41;150749.59;;;-1.42;100.00
10127;BME280;13080;42.608;23.362;2023-01-09T06:25:09;150750.88;;;-1.42;100.00
10127;BME280;13080;42.608;23.362;2023-01-09T06:27:37;150753.47;;;-1.41;100.00
10127;BME280;13080;42.608;23.362;2023-01-09T06:30:04;150762.44;;;-1.37;100.00
10127;BME280;13080;42.608;23.362;2023-01-09T06:32:31;150765.06;;;-1.36;100.00
10127;BME280;13080;42.608;23.362;2023-01-09T06:34:57;150771.47;;;-1.34;100.00
10127;BME280;13080;42.608;23.362;2023-01-09T06:37:24;150774.03;;;-1.33;100.00
10127;BME280;13080;42.608;23.362;2023-01-09T06:39:50;150790.75;;;-1.26;100.00
10127;BME280;13080;42.608;23.362;2023-01-09T06:42:18;150801.03;;;-1.22;100.00
10127;BME280;13080;42.608;23.362;2023-01-09T06:44:46;150811.34;;;-1.18;100.00
10127;BME280;13080;42.608;23.362;2023-01-09T06:47:12;150816.50;;;-1.16;100.00
10127;BME280;13080;42.608;23.362;2023-01-09T06:49:39;150813.91;;;-1.17;100.00
10127;BME280;13080;42.608;23.362;2023-01-09T06:52:05;150812.63;;;-1.17;100.00
10127;BME280;13080;42.608;23.362;2023-01-09T06:54:32;150822.94;;;-1.13;100.00
10127;BME280;13080;42.608;23.362;2023-01-09T06:56:58;150826.78;;;-1.12;100.00
10127;BME280;13080;42.608;23.362;2023-01-09T06:59:25;150843.53;;;-1.05;100.00
10127;BME280;13080;42.608;23.362;2023-01-09T07:01:53;150848.69;;;-1.03;100.00
10127;BME280;13080;42.608;23.362;2023-01-09T07:04:19;150861.53;;;-0.98;100.00
10127;BME280;13080;42.608;23.362;2023-01-09T07:06:47;150871.81;;;-0.94;100.00
10127;BME280;13080;42.608;23.362;2023-01-09T07:09:13;150876.97;;;-0.92;100.00
10127;BME280;13080;42.608;23.362;2023-01-09T07:11:40;150902.69;;;-0.81;100.00
10127;BME280;13080;42.608;23.362;2023-01-09T07:14:06;150927.16;;;-0.72;100.00
10127;BME280;13080;42.608;23.362;2023-01-09T07:16:33;150940.03;;;-0.67;100.00
10127;BME280;13080;42.608;23.362;2023-01-09T07:19:01;150964.47;;;-0.57;100.00
10127;BME280;13080;42.608;23.362;2023-01-09T07:21:27;150990.22;;;-0.47;100.00
10127;BME280;13080;42.608;23.362;2023-01-09T07:23:54;151013.41;;;-0.37;100.00
10127;BME280;13080;42.608;23.362;2023-01-09T07:26:20;151033.97;;;-0.29;100.00
10127;BME280;13080;42.608;23.362;2023-01-09T07:28:47;151050.69;;;-0.23;100.00
10127;BME280;13080;42.608;23.362;2023-01-09T07:31:13;151076.47;;;-0.12;100.00
10127;BME280;13080;42.608;23.362;2023-01-09T07:33:40;151093.22;;;-0.06;100.00
10127;BME280;13080;42.608;23.362;2023-01-09T07:36:08;151106.06;;;-0.01;100.00
10127;BME280;13080;42.608;23.362;2023-01-09T07:38:35;151119.00;;;0.05;100.00
10127;BME280;13080;42.608;23.362;2023-01-09T07:41:02;151142.16;;;0.14;100.00
10127;BME280;13080;42.608;23.362;2023-01-09T07:43:28;151164.06;;;0.23;100.00
10127;BME280;13080;42.608;23.362;2023-01-09T07:45:54;151171.78;;;0.26;100.00
10127;BME280;13080;42.608;23.362;2023-01-09T07:48:21;151211.72;;;0.41;100.00
10127;BME280;13080;42.608;23.362;2023-01-09T07:50:47;151241.31;;;0.53;100.00
10127;BME280;13080;42.608;23.362;2023-01-09T07:53:15;151273.56;;;0.66;100.00
10127;BME280;13080;42.608;23.362;2023-01-09T07:55:42;151286.41;;;0.71;100.00
10127;BME280;13080;42.608;23.362;2023-01-09T07:58:08;151305.78;;;0.79;99.50
10127;BME280;13080;42.608;23.362;2023-01-09T08:00:35;151326.38;;;0.87;98.46
10127;BME280;13080;42.608;23.362;2023-01-09T08:03:01;151337.97;;;0.92;98.10
10127;BME280;13080;42.608;23.362;2023-01-09T08:05:28;151336.69;;;0.91;97.93
10127;BME280;13080;42.608;23.362;2023-01-09T08:07:54;151368.91;;;1.04;97.07
10127;BME280;13080;42.608;23.362;2023-01-09T08:10:22;151397.28;;;1.15;97.02
10127;BME280;13080;42.608;23.362;2023-01-09T08:12:49;151405.00;;;1.18;97.05
10127;BME280;13080;42.608;23.362;2023-01-09T08:15:16;151399.81;;;1.16;96.67
10127;BME280;13080;42.608;23.362;2023-01-09T08:17:43;151426.91;;;1.27;96.50
10127;BME280;13080;42.608;23.362;2023-01-09T08:20:10;151441.13;;;1.33;96.00
10127;BME280;13080;42.608;23.362;2023-01-09T08:22:37;151463.03;;;1.41;95.56
10127;BME280;13080;42.608;23.362;2023-01-09T08:25:04;151470.75;;;1.44;95.17
10127;BME280;13080;42.608;23.362;2023-01-09T08:27:32;151487.50;;;1.51;93.91
10127;BME280;13080;42.608;23.362;2023-01-09T08:29:58;151497.84;;;1.55;92.91
10127;BME280;13080;42.608;23.362;2023-01-09T08:32:25;151506.84;;;1.59;92.49
10127;BME280;13080;42.608;23.362;2023-01-09T08:34:51;151513.28;;;1.61;92.24
10127;BME280;13080;42.608;23.362;2023-01-09T08:37:18;151533.94;;;1.70;92.00
10127;BME280;13080;42.608;23.362;2023-01-09T08:39:44;151546.81;;;1.75;92.90
10127;BME280;13080;42.608;23.362;2023-01-09T08:42:11;151563.56;;;1.81;92.19
10127;BME280;13080;42.608;23.362;2023-01-09T08:44:56;151591.94;;;1.93;92.26
10127;BME280;13080;42.608;23.362;2023-01-09T08:47:40;151594.56;;;1.94;92.89
10127;BME280;13080;42.608;23.362;2023-01-09T08:50:07;151620.34;;;2.04;93.26
10127;BME280;13080;42.608;23.362;2023-01-09T08:52:34;151626.81;;;2.06;93.38
10127;BME280;13080;42.608;23.362;2023-01-09T08:55:01;151659.03;;;2.19;93.22
10127;BME280;13080;42.608;23.362;2023-01-09T08:57:27;151673.25;;;2.25;93.81
10127;BME280;13080;42.608;23.362;2023-01-09T08:59:54;151674.53;;;2.25;93.75
10127;BME280;13080;42.608;23.362;2023-01-09T09:02:21;151695.19;;;2.34;93.89
10127;BME280;13080;42.608;23.362;2023-01-09T09:04:48;151710.66;;;2.40;93.09
10127;BME280;13080;42.608;23.362;2023-01-09T09:07:17;151744.19;;;2.53;92.20
10127;BME280;13080;42.608;23.362;2023-01-09T09:09:50;151757.13;;;2.58;90.86
10127;BME280;13080;42.608;23.362;2023-01-09T09:12:16;151753.25;;;2.57;91.29
10127;BME280;13080;42.608;23.362;2023-01-09T09:14:43;151771.31;;;2.64;90.24
10127;BME280;13080;42.608;23.362;2023-01-09T09:17:28;151782.91;;;2.68;90.72
10127;BME280;13080;42.608;23.362;2023-01-09T09:19:56;151799.69;;;2.75;90.31
10127;BME280;13080;42.608;23.362;2023-01-09T09:22:23;151811.31;;;2.80;89.24
10127;BME280;13080;42.608;23.362;2023-01-09T09:24:50;151798.41;;;2.75;89.04
10127;BME280;13080;42.608;23.362;2023-01-09T09:27:16;151813.94;;;2.81;89.01
10127;BME280;13080;42.608;23.362;2023-01-09T09:29:43;151837.16;;;2.90;88.70
10127;BME280;13080;42.608;23.362;2023-01-09T09:32:09;151847.50;;;2.94;89.04
10127;BME280;13080;42.608;23.362;2023-01-09T09:34:37;151868.13;;;3.02;87.60
10127;BME280;13080;42.608;23.362;2023-01-09T09:37:03;151881.06;;;3.07;88.18
10127;BME280;13080;42.608;23.362;2023-01-09T09:39:30;151940.44;;;3.31;87.73
10127;BME280;13080;42.608;23.362;2023-01-09T09:42:03;151952.06;;;3.36;87.14
10127;BME280;13080;42.608;23.362;2023-01-09T09:44:57;151943.03;;;3.32;87.52
10127;BME280;13080;42.608;23.362;2023-01-09T09:47:33;151954.66;;;3.37;86.55
10127;BME280;13080;42.608;23.362;2023-01-09T09:50:09;151931.41;;;3.27;87.30
10127;BME280;13080;42.608;23.362;2023-01-09T09:52:40;151974.00;;;3.44;87.19
10127;BME280;13080;42.608;23.362;2023-01-09T09:55:13;151992.09;;;3.51;86.33
10127;BME280;13080;42.608;23.362;2023-01-09T09:57:41;151968.84;;;3.42;86.62
10127;BME280;13080;42.608;23.362;2023-01-09T10:00:09;151979.19;;;3.46;87.63
10127;BME280;13080;42.608;23.362;2023-01-09T10:02:42;151986.91;;;3.49;87.19
10127;BME280;13080;42.608;23.362;2023-01-09T10:05:13;152015.31;;;3.61;86.27
10127;BME280;13080;42.608;23.362;2023-01-09T10:07:41;152023.09;;;3.64;86.33
10127;BME280;13080;42.608;23.362;2023-01-09T10:10:13;152034.72;;;3.68;85.99
10127;BME280;13080;42.608;23.362;2023-01-09T10:12:42;152045.06;;;3.72;86.19
10127;BME280;13080;42.608;23.362;2023-01-09T10:15:13;152054.09;;;3.76;86.28
10127;BME280;13080;42.608;23.362;2023-01-09T10:17:44;152056.69;;;3.77;86.02
10127;BME280;13080;42.608;23.362;2023-01-09T10:20:29;152067.03;;;3.81;86.92
10127;BME280;13080;42.608;23.362;2023-01-09T10:23:04;152083.78;;;3.88;87.79
10127;BME280;13080;42.608;23.362;2023-01-09T10:25:36;152100.59;;;3.94;86.63
10127;BME280;13080;42.608;23.362;2023-01-09T10:30:51;152107.09;;;3.97;85.46
10127;BME280;13080;42.608;23.362;2023-01-09T10:33:25;152101.91;;;3.95;86.36
10127;BME280;13080;42.608;23.362;2023-01-09T10:36:00;152077.34;;;3.85;87.62
10127;BME280;13080;42.608;23.362;2023-01-09T10:38:30;152100.59;;;3.94;87.31
10127;BME280;13080;42.608;23.362;2023-01-09T10:40:59;152116.09;;;4.01;86.40
10127;BME280;13080;42.608;23.362;2023-01-09T10:43:28;152130.34;;;4.06;86.61
10127;BME280;13080;42.608;23.362;2023-01-09T10:45:59;152160.03;;;4.18;85.97
10127;BME280;13080;42.608;23.362;2023-01-09T10:48:28;152172.97;;;4.23;85.83
10127;BME280;13080;42.608;23.362;2023-01-09T10:50:58;152183.31;;;4.27;85.39
10127;BME280;13080;42.608;23.362;2023-01-09T10:53:26;152200.09;;;4.34;85.73
10127;BME280;13080;42.608;23.362;2023-01-09T10:55:54;152198.81;;;4.33;84.74
10127;BME280;13080;42.608;23.362;2023-01-09T10:58:21;152198.81;;;4.33;84.79
10127;BME280;13080;42.608;23.362;2023-01-09T11:00:49;152182.03;;;4.27;84.12
10127;BME280;13080;42.608;23.362;2023-01-09T11:03:16;152228.53;;;4.45;84.08
10127;BME280;13080;42.608;23.362;2023-01-09T11:05:43;152247.97;;;4.53;83.17
10127;BME280;13080;42.608;23.362;2023-01-09T11:08:17;152282.84;;;4.67;82.86
10127;BME280;13080;42.608;23.362;2023-01-09T11:10:47;152311.28;;;4.78;82.08
10127;BME280;13080;42.608;23.362;2023-01-09T11:13:17;152338.47;;;4.89;81.77
10127;BME280;13080;42.608;23.362;2023-01-09T11:15:45;152344.91;;;4.91;81.41
10127;BME280;13080;42.608;23.362;2023-01-09T11:18:21;152366.91;;;5.00;81.30
10127;BME280;13080;42.608;23.362;2023-01-09T11:20:49;152412.16;;;5.18;81.78
10127;BME280;13080;42.608;23.362;2023-01-09T11:23:24;152408.25;;;5.16;80.43
10127;BME280;13080;42.608;23.362;2023-01-09T11:25:51;152460.00;;;5.37;79.59
10127;BME280;13080;42.608;23.362;2023-01-09T11:28:18;152472.91;;;5.42;79.36
10127;BME280;13080;42.608;23.362;2023-01-09T11:30:49;152487.16;;;5.48;79.18
10127;BME280;13080;42.608;23.362;2023-01-09T11:33:17;152484.56;;;5.47;79.57
10127;BME280;13080;42.608;23.362;2023-01-09T11:35:56;152467.75;;;5.40;78.97
10127;BME280;13080;42.608;23.362;2023-01-09T11:38:24;152461.28;;;5.37;79.69
10127;BME280;13080;42.608;23.362;2023-01-09T11:40:51;152453.53;;;5.34;79.70
10127;BME280;13080;42.608;23.362;2023-01-09T11:43:19;152445.75;;;5.31;79.45
10127;BME280;13080;42.608;23.362;2023-01-09T11:45:49;152426.38;;;5.24;79.99
10127;BME280;13080;42.608;23.362;2023-01-09T11:48:27;152428.97;;;5.25;80.13
10127;BME280;13080;42.608;23.362;2023-01-09T11:50:54;152438.00;;;5.28;80.33
10127;BME280;13080;42.608;23.362;2023-01-09T11:53:21;152476.81;;;5.44;79.54
10127;BME280;13080;42.608;23.362;2023-01-09T11:55:52;152493.63;;;5.50;79.62
10127;BME280;13080;42.608;23.362;2023-01-09T11:58:21;152498.81;;;5.52;78.82
10127;BME280;13080;42.608;23.362;2023-01-09T12:00:56;152489.72;;;5.49;78.75
10127;BME280;13080;42.608;23.362;2023-01-09T12:03:28;152471.63;;;5.41;78.57
10127;BME280;13080;42.608;23.362;2023-01-09T12:06:02;152452.25;;;5.34;78.97
10127;BME280;13080;42.608;23.362;2023-01-09T12:08:34;152453.53;;;5.34;79.02
10127;BME280;13080;42.608;23.362;2023-01-09T12:11:16;152440.63;;;5.29;78.97
10127;BME280;13080;42.608;23.362;2023-01-09T12:13:51;152438.00;;;5.28;79.03
10127;BME280;13080;42.608;23.362;2023-01-09T12:16:23;152430.25;;;5.25;80.14
10127;BME280;13080;42.608;23.362;2023-01-09T12:18:59;152428.97;;;5.25;80.22
10127;BME280;13080;42.608;23.362;2023-01-09T12:21:31;152439.28;;;5.29;79.39
10127;BME280;13080;42.608;23.362;2023-01-09T12:24:04;152427.66;;;5.24;79.45
10127;BME280;13080;42.608;23.362;2023-01-09T12:26:38;152461.28;;;5.37;79.89
10127;BME280;13080;42.608;23.362;2023-01-09T12:29:11;152488.44;;;5.48;79.89
10127;BME280;13080;42.608;23.362;2023-01-09T12:31:49;152497.53;;;5.52;79.31
10127;BME280;13080;42.608;23.362;2023-01-09T12:34:26;152509.16;;;5.56;79.81
10127;BME280;13080;42.608;23.362;2023-01-09T12:36:59;152520.81;;;5.61;78.87
10127;BME280;13080;42.608;23.362;2023-01-09T12:39:32;152493.63;;;5.50;79.44
10127;BME280;13080;42.608;23.362;2023-01-09T12:42:14;152470.34;;;5.41;78.84
10127;BME280;13080;42.608;23.362;2023-01-09T12:44:48;152447.06;;;5.32;78.63
10127;BME280;13080;42.608;23.362;2023-01-09T12:47:20;152419.91;;;5.21;79.14
10127;BME280;13080;42.608;23.362;2023-01-09T12:49:56;152416.00;;;5.19;80.25
10127;BME280;13080;42.608;23.362;2023-01-09T12:52:25;152416.00;;;5.19;80.24